Time;durP1;ratioP1;P1;durP2;ratioP2;P2;SDS_P1;SDS_P2;PMS_P1;PMS_P2;Temp;Humidity;BMP_temperature;BMP_pressure;BME280_temperature;BME280_humidity;BME280_pressure;Samples;Min_cycle;Max_cycle;Signal;HPM_P1;HPM_P2
2022/06/01 00:00:46;;;;;;;;;4.67;3.67;;;;;;;;5074676;27;45510;-72
2022/06/01 00:03:11;;;;;;;;;2.67;2.67;;;;;;;;5086154;27;45234;-72
2022/06/01 00:05:36;;;;;;;;;4.00;1.67;;;;;;;;5077136;28;46471;-72
2022/06/01 00:08:02;;;;;;;;;4.00;3.00;;;;;;;;5079743;27;45228;-72
2022/06/01 00:10:28;;;;;;;;;4.33;3.00;;;;;;;;5076395;27;45688;-72
2022/06/01 00:12:54;;;;;;;;;3.00;3.00;;;;;;;;5079940;27;45371;-73
2022/06/01 00:15:20;;;;;;;;;4.00;4.00;;;;;;;;5076453;27;45296;-72
2022/06/01 00:17:46;;;;;;;;;4.00;4.00;;;;;;;;5062012;27;45294;-72
2022/06/01 00:20:11;;;;;;;;;4.00;4.00;;;;;;;;5053505;28;45380;-72
2022/06/01 00:22:37;;;;;;;;;4.33;3.00;;;;;;;;5073851;27;45486;-72
2022/06/01 00:25:04;;;;;;;;;3.00;3.00;;;;;;;;5065857;27;47178;-72
2022/06/01 00:27:29;;;;;;;;;2.00;2.00;;;;;;;;5087677;27;45466;-72
2022/06/01 00:29:55;;;;;;;;;2.00;2.00;;;;;;;;5076324;27;45487;-72
2022/06/01 00:32:20;;;;;;;;;2.33;2.33;;;;;;;;5061200;28;46032;-72
2022/06/01 00:34:45;;;;;;;;;4.00;3.00;;;;;;;;5076959;27;45315;-72
2022/06/01 00:37:10;;;;;;;;;3.33;3.33;;;;;;;;5079742;28;45331;-72
2022/06/01 00:39:36;;;;;;;;;4.00;3.00;;;;;;;;5072560;27;45334;-72
2022/06/01 00:42:18;;;;;;;;;2.33;2.00;;;;;;;;5084823;27;45398;-72
2022/06/01 00:44:44;;;;;;;;;3.00;3.00;;;;;;;;5073405;27;45417;-72
2022/06/01 00:47:10;;;;;;;;;4.00;3.00;;;;;;;;5060917;28;45308;-72
2022/06/01 00:49:37;;;;;;;;;4.33;2.00;;;;;;;;5072594;27;45462;-72
2022/06/01 00:52:03;;;;;;;;;3.67;3.67;;;;;;;;5080287;27;45490;-72
2022/06/01 00:54:29;;;;;;;;;4.33;3.00;;;;;;;;5074558;28;45522;-72
2022/06/01 00:56:56;;;;;;;;;3.00;3.00;;;;;;;;5078056;27;45421;-72
2022/06/01 00:59:24;;;;;;;;;3.33;3.33;;;;;;;;5083242;27;45226;-72
2022/06/01 01:01:52;;;;;;;;;2.00;2.00;;;;;;;;5058090;28;46084;-72
2022/06/01 01:04:17;;;;;;;;;3.33;3.33;;;;;;;;5057415;28;47504;-72
2022/06/01 01:06:43;;;;;;;;;6.00;3.50;;;;;;;;5059763;28;45361;-72
2022/06/01 01:09:10;;;;;;;;;3.67;3.33;;;;;;;;5075521;27;45426;-71
2022/06/01 01:11:35;;;;;;;;;3.00;3.00;;;;;;;;5076841;27;45477;-72
2022/06/01 01:14:02;;;;;;;;;4.67;4.00;;;;;;;;5058524;28;47207;-71
2022/06/01 01:16:29;;;;;;;;;4.00;3.00;;;;;;;;5085345;27;45498;-72
2022/06/01 01:18:55;;;;;;;;;6.00;3.00;;;;;;;;5067030;28;45470;-72
2022/06/01 01:21:29;;;;;;;;;2.25;1.50;;;;;;;;5076761;27;45451;-72
2022/06/01 01:24:00;;;;;;;;;3.00;3.00;;;;;;;;5075533;27;46455;-71
2022/06/01 01:26:27;;;;;;;;;6.00;4.00;;;;;;;;5075751;28;45352;-72
2022/06/01 01:28:53;;;;;;;;;4.00;4.00;;;;;;;;5059113;27;45410;-72
2022/06/01 01:31:19;;;;;;;;;5.00;3.00;;;;;;;;5049867;28;47193;-72
2022/06/01 01:33:47;;;;;;;;;3.00;3.00;;;;;;;;5052592;28;49284;-72
2022/06/01 01:36:13;;;;;;;;;4.50;4.50;;;;;;;;5050048;28;45502;-72
2022/06/01 01:38:45;;;;;;;;;4.00;4.00;;;;;;;;5071438;27;45296;-72
2022/06/01 01:41:22;;;;;;;;;4.25;3.00;;;;;;;;5071424;28;45359;-72
2022/06/01 01:43:51;;;;;;;;;4.25;2.75;;;;;;;;5076616;28;45553;-72
2022/06/01 01:46:16;;;;;;;;;3.75;3.75;;;;;;;;5059278;28;45357;-72
2022/06/01 01:48:41;;;;;;;;;5.00;5.00;;;;;;;;5076262;28;45217;-72
2022/06/01 01:51:07;;;;;;;;;3.25;3.25;;;;;;;;5080170;27;45317;-72
2022/06/01 01:53:33;;;;;;;;;5.00;4.00;;;;;;;;5058046;27;47168;-72
2022/06/01 01:56:01;;;;;;;;;4.75;4.75;;;;;;;;5066768;27;45419;-72
2022/06/01 01:58:29;;;;;;;;;4.00;4.00;;;;;;;;5076068;27;45543;-72
2022/06/01 02:01:00;;;;;;;;;4.00;3.00;;;;;;;;5076028;27;45582;-71
2022/06/01 02:03:32;;;;;;;;;5.00;4.00;;;;;;;;5063109;27;47128;-72
2022/06/01 02:06:08;;;;;;;;;4.75;4.75;;;;;;;;5052063;28;45552;-72
2022/06/01 02:08:36;;;;;;;;;4.50;4.00;;;;;;;;5074581;28;46602;-72
2022/06/01 02:13:53;;;;;;;;;3.75;3.75;;;;;;;;5089153;27;45385;-72
2022/06/01 02:16:20;;;;;;;;;5.75;5.25;;;;;;;;5078179;28;45445;-72
2022/06/01 02:18:48;;;;;;;;;4.75;4.00;;;;;;;;5061345;27;45277;-72
2022/06/01 02:21:16;;;;;;;;;5.75;4.00;;;;;;;;5063373;28;46056;-72
2022/06/01 02:23:41;;;;;;;;;4.00;3.25;;;;;;;;5061747;27;47709;-72
2022/06/01 02:26:06;;;;;;;;;4.00;4.00;;;;;;;;5058909;28;45323;-73
2022/06/01 02:28:32;;;;;;;;;4.75;4.75;;;;;;;;5062663;28;45233;-72
2022/06/01 02:30:59;;;;;;;;;6.00;5.00;;;;;;;;5079992;27;45714;-72
2022/06/01 02:33:25;;;;;;;;;4.50;4.50;;;;;;;;5081480;27;46177;-72
2022/06/01 02:35:52;;;;;;;;;5.50;5.50;;;;;;;;5072112;27;45391;-72
2022/06/01 02:38:26;;;;;;;;;5.00;5.00;;;;;;;;5082821;28;45397;-72
2022/06/01 02:40:52;;;;;;;;;5.25;5.25;;;;;;;;5072033;27;45547;-72
2022/06/01 02:43:17;;;;;;;;;8.00;6.75;;;;;;;;5096162;27;45466;-72
2022/06/01 02:45:42;;;;;;;;;5.75;5.50;;;;;;;;5065233;28;45657;-72
2022/06/01 02:48:08;;;;;;;;;7.00;6.50;;;;;;;;5081642;27;45278;-72
2022/06/01 02:50:34;;;;;;;;;5.00;5.00;;;;;;;;5061927;28;46246;-72
2022/06/01 02:53:00;;;;;;;;;6.50;6.50;;;;;;;;5062772;28;48657;-72
2022/06/01 02:55:26;;;;;;;;;5.00;5.00;;;;;;;;5058170;28;45483;-72
2022/06/01 02:57:52;;;;;;;;;5.75;5.75;;;;;;;;5064772;27;45675;-72
2022/06/01 03:00:22;;;;;;;;;8.00;6.25;;;;;;;;5059054;28;47187;-72
2022/06/01 03:02:51;;;;;;;;;7.00;7.00;;;;;;;;5080795;27;45415;-72
2022/06/01 03:05:17;;;;;;;;;7.25;7.25;;;;;;;;5073965;27;46023;-72
2022/06/01 03:07:42;;;;;;;;;6.75;6.75;;;;;;;;5062292;28;45343;-72
2022/06/01 03:10:09;;;;;;;;;8.00;6.00;;;;;;;;5056315;28;46104;-72
2022/06/01 03:12:34;;;;;;;;;6.75;6.75;;;;;;;;5072560;27;47561;-72
2022/06/01 03:14:59;;;;;;;;;5.00;5.00;;;;;;;;5064052;28;45467;-72
2022/06/01 03:17:25;;;;;;;;;7.25;6.75;;;;;;;;5084994;27;45518;-72
2022/06/01 03:19:50;;;;;;;;;7.25;7.25;;;;;;;;5079877;27;45323;-72
2022/06/01 03:22:16;;;;;;;;;11.75;7.75;;;;;;;;5077129;27;46461;-72
2022/06/01 03:24:41;;;;;;;;;6.75;6.75;;;;;;;;5058472;28;45752;-72
2022/06/01 03:27:07;;;;;;;;;5.75;5.75;;;;;;;;5079267;27;45509;-72
2022/06/01 03:29:32;;;;;;;;;6.75;5.50;;;;;;;;5064609;28;46237;-72
2022/06/01 03:31:58;;;;;;;;;8.00;6.00;;;;;;;;5080570;27;46240;-72
2022/06/01 03:34:25;;;;;;;;;3.75;3.75;;;;;;;;5078070;27;45235;-73
2022/06/01 03:36:50;;;;;;;;;5.00;5.00;;;;;;;;5079036;27;45292;-72
2022/06/01 03:39:16;;;;;;;;;8.25;5.75;;;;;;;;5077816;27;45277;-72
2022/06/01 03:41:41;;;;;;;;;5.50;5.50;;;;;;;;5076619;28;47297;-72
2022/06/01 03:46:52;;;;;;;;;7.50;7.00;;;;;;;;5083820;27;45272;-72
2022/06/01 03:49:17;;;;;;;;;8.50;6.25;;;;;;;;5075647;28;45179;-72
2022/06/01 03:51:43;;;;;;;;;7.75;7.75;;;;;;;;5078444;27;46151;-72
2022/06/01 03:54:08;;;;;;;;;5.50;4.75;;;;;;;;5085904;27;45642;-72
2022/06/01 03:56:33;;;;;;;;;8.00;7.25;;;;;;;;5080214;27;45404;-72
2022/06/01 03:58:59;;;;;;;;;6.50;6.00;;;;;;;;5059645;28;46009;-72
2022/06/01 04:01:24;;;;;;;;;6.75;6.50;;;;;;;;5078509;27;45565;-72
2022/06/01 04:03:49;;;;;;;;;7.25;5.75;;;;;;;;5077465;28;45438;-72
2022/06/01 04:06:15;;;;;;;;;8.25;6.00;;;;;;;;5075511;27;45392;-72
2022/06/01 04:08:40;;;;;;;;;5.50;5.50;;;;;;;;5065153;28;47010;-72
2022/06/01 04:11:06;;;;;;;;;8.00;7.00;;;;;;;;5079930;27;45397;-72
2022/06/01 04:13:32;;;;;;;;;6.50;6.50;;;;;;;;5078814;27;45291;-72
2022/06/01 04:15:57;;;;;;;;;8.00;6.00;;;;;;;;5077808;27;45256;-72
2022/06/01 04:18:22;;;;;;;;;8.50;6.00;;;;;;;;5079597;27;45434;-72
2022/06/01 04:20:49;;;;;;;;;8.00;7.00;;;;;;;;5075429;27;46129;-72
2022/06/01 04:23:14;;;;;;;;;6.00;6.00;;;;;;;;5081746;28;46114;-72
2022/06/01 04:25:39;;;;;;;;;6.75;5.50;;;;;;;;5076699;27;45327;-72
2022/06/01 04:28:05;;;;;;;;;7.75;6.50;;;;;;;;5072671;28;47125;-73
2022/06/01 04:30:30;;;;;;;;;7.00;7.00;;;;;;;;5076114;28;45725;-72
2022/06/01 04:32:56;;;;;;;;;11.25;7.00;;;;;;;;5087000;27;45224;-72
2022/06/01 04:35:22;;;;;;;;;6.50;6.50;;;;;;;;5083655;27;45206;-72
2022/06/01 04:37:47;;;;;;;;;6.00;6.00;;;;;;;;5059685;28;47221;-72
2022/06/01 04:40:13;;;;;;;;;5.50;5.00;;;;;;;;5077780;27;46164;-72
2022/06/01 04:42:39;;;;;;;;;7.00;7.00;;;;;;;;5074543;28;45756;-72
2022/06/01 04:45:05;;;;;;;;;6.75;6.75;;;;;;;;5049531;28;45415;-72
2022/06/01 04:47:30;;;;;;;;;7.00;7.00;;;;;;;;5078615;28;46994;-72
2022/06/01 04:49:55;;;;;;;;;10.75;6.50;;;;;;;;5077411;27;45997;-72
2022/06/01 04:52:20;;;;;;;;;5.75;5.75;;;;;;;;5079045;27;45382;-71
2022/06/01 04:54:46;;;;;;;;;9.75;6.00;;;;;;;;5072369;27;45306;-72
2022/06/01 04:57:11;;;;;;;;;6.00;6.00;;;;;;;;5079231;27;45332;-74
2022/06/01 04:59:36;;;;;;;;;5.75;5.75;;;;;;;;5074622;28;45375;-72
2022/06/01 05:02:01;;;;;;;;;8.25;6.00;;;;;;;;5080129;27;45328;-73
2022/06/01 05:04:28;;;;;;;;;9.00;5.25;;;;;;;;5073029;27;45474;-73
2022/06/01 05:06:54;;;;;;;;;6.25;6.25;;;;;;;;5084639;27;45363;-72
2022/06/01 05:09:19;;;;;;;;;5.50;5.50;;;;;;;;5054659;28;47163;-73
2022/06/01 05:11:44;;;;;;;;;7.50;7.50;;;;;;;;5081039;27;45398;-71
2022/06/01 05:14:09;;;;;;;;;6.50;6.50;;;;;;;;5082026;27;45470;-72
2022/06/01 05:16:35;;;;;;;;;5.00;5.00;;;;;;;;5076629;27;45457;-72
2022/06/01 05:19:00;;;;;;;;;5.25;4.00;;;;;;;;5076332;27;45552;-72
2022/06/01 05:21:25;;;;;;;;;8.25;6.50;;;;;;;;5076610;28;45651;-73
2022/06/01 05:23:50;;;;;;;;;7.25;7.25;;;;;;;;5059003;27;45324;-75
2022/06/01 05:26:15;;;;;;;;;8.75;6.75;;;;;;;;5059227;28;46418;-74
2022/06/01 05:28:41;;;;;;;;;6.50;6.00;;;;;;;;5079234;27;46093;-73
2022/06/01 05:31:09;;;;;;;;;9.00;7.50;;;;;;;;5070545;28;45352;-73
2022/06/01 05:33:34;;;;;;;;;8.50;8.50;;;;;;;;5078610;27;45343;-72
2022/06/01 05:35:59;;;;;;;;;9.00;8.00;;;;;;;;5070843;27;45333;-72
2022/06/01 05:38:24;;;;;;;;;9.25;9.25;;;;;;;;5084899;27;45472;-73
2022/06/01 05:40:50;;;;;;;;;12.50;9.25;;;;;;;;5089791;27;45303;-72
2022/06/01 05:43:16;;;;;;;;;12.50;10.25;;;;;;;;5098449;27;45649;-72
2022/06/01 05:45:42;;;;;;;;;7.25;7.25;;;;;;;;5070267;28;45450;-72
2022/06/01 05:48:08;;;;;;;;;8.50;7.50;;;;;;;;5062933;27;47078;-72
2022/06/01 05:50:33;;;;;;;;;11.75;8.00;;;;;;;;5078274;27;45642;-73
2022/06/01 05:52:59;;;;;;;;;9.25;9.00;;;;;;;;5077631;27;45516;-71
2022/06/01 05:55:24;;;;;;;;;8.75;8.75;;;;;;;;5076487;27;45541;-73
2022/06/01 05:57:49;;;;;;;;;8.50;8.25;;;;;;;;5080831;27;46672;-75
2022/06/01 06:00:16;;;;;;;;;9.50;7.50;;;;;;;;5074513;27;45398;-74
2022/06/01 06:02:41;;;;;;;;;6.25;6.00;;;;;;;;5096071;27;45339;-73
2022/06/01 06:07:51;;;;;;;;;8.00;7.00;;;;;;;;5079572;27;45344;-72
2022/06/01 06:10:17;;;;;;;;;7.25;7.25;;;;;;;;5082802;27;45471;-72
2022/06/01 06:12:42;;;;;;;;;8.25;7.00;;;;;;;;5081764;27;45280;-73
2022/06/01 06:15:07;;;;;;;;;10.00;8.50;;;;;;;;5070426;28;45312;-72
2022/06/01 06:17:32;;;;;;;;;9.50;8.50;;;;;;;;5078490;28;45488;-72
2022/06/01 06:19:58;;;;;;;;;6.00;5.25;;;;;;;;5077244;27;45224;-72
2022/06/01 06:22:25;;;;;;;;;5.75;3.75;;;;;;;;5066500;27;45166;-73
2022/06/01 06:24:50;;;;;;;;;5.25;5.25;;;;;;;;5061438;27;46941;-72
2022/06/01 06:27:15;;;;;;;;;5.75;4.75;;;;;;;;5092002;27;45369;-72
2022/06/01 06:29:41;;;;;;;;;5.50;5.50;;;;;;;;5079098;27;45502;-72
2022/06/01 06:32:06;;;;;;;;;4.25;4.00;;;;;;;;5053162;28;45366;-72
2022/06/01 06:34:31;;;;;;;;;4.75;4.00;;;;;;;;5060734;28;45992;-72
2022/06/01 06:36:57;;;;;;;;;6.25;6.25;;;;;;;;5063325;28;48070;-72
2022/06/01 06:39:22;;;;;;;;;5.00;5.00;;;;;;;;5091571;27;45363;-72
2022/06/01 06:41:47;;;;;;;;;3.00;3.00;;;;;;;;5076779;27;45378;-69
2022/06/01 06:44:12;;;;;;;;;2.67;2.67;;;;;;;;5077323;27;45328;-69
2022/06/01 06:46:37;;;;;;;;;3.00;3.00;;;;;;;;5078135;27;45319;-69
2022/06/01 06:49:03;;;;;;;;;4.00;2.00;;;;;;;;5079798;27;45514;-69
2022/06/01 06:51:28;;;;;;;;;4.33;3.33;;;;;;;;5077288;27;45345;-68
2022/06/01 06:53:53;;;;;;;;;5.00;4.00;;;;;;;;5078104;27;45653;-69
2022/06/01 06:56:19;;;;;;;;;4.67;4.00;;;;;;;;5057364;27;45410;-69
2022/06/01 06:58:45;;;;;;;;;5.67;5.00;;;;;;;;5089681;27;45245;-69
2022/06/01 07:01:10;;;;;;;;;5.00;4.00;;;;;;;;5082054;27;45536;-69
2022/06/01 07:03:35;;;;;;;;;2.00;2.00;;;;;;;;5080305;27;45255;-69
2022/06/01 07:06:10;;;;;;;;;5.33;5.33;;;;;;;;5074497;27;45383;-69
2022/06/01 07:08:36;;;;;;;;;3.67;3.67;;;;;;;;5079522;27;45460;-69
2022/06/01 07:11:01;;;;;;;;;6.00;6.00;;;;;;;;5075600;28;45224;-69
2022/06/01 07:13:29;;;;;;;;;6.33;6.33;;;;;;;;5087449;27;45220;-69
2022/06/01 07:16:01;;;;;;;;;6.67;6.67;;;;;;;;5076309;27;45663;-69
2022/06/01 07:18:26;;;;;;;;;5.67;4.00;;;;;;;;5080577;27;45431;-69
2022/06/01 07:20:51;;;;;;;;;6.00;5.00;;;;;;;;5076573;28;45347;-69
2022/06/01 07:23:16;;;;;;;;;8.00;6.00;;;;;;;;5080714;28;45645;-69
2022/06/01 07:25:42;;;;;;;;;5.33;4.00;;;;;;;;5078721;27;45308;-68
2022/06/01 07:28:08;;;;;;;;;6.67;5.00;;;;;;;;5080476;28;45290;-69
2022/06/01 07:30:34;;;;;;;;;4.67;4.67;;;;;;;;5070024;27;45280;-69
2022/06/01 07:32:59;;;;;;;;;7.00;4.00;;;;;;;;5079836;27;45540;-69
2022/06/01 07:35:24;;;;;;;;;3.33;3.33;;;;;;;;5077929;27;45389;-69
2022/06/01 07:43:18;;;;;;;;;3.33;3.33;;;;;;;;5080136;27;45438;-69
2022/06/01 07:45:45;;;;;;;;;4.00;4.00;;;;;;;;5074994;27;45575;-69
2022/06/01 07:48:10;;;;;;;;;7.33;3.67;;;;;;;;5079991;28;45367;-69
2022/06/01 07:50:36;;;;;;;;;5.00;4.67;;;;;;;;5056278;28;45420;-69
2022/06/01 07:53:03;;;;;;;;;6.00;5.00;;;;;;;;5061272;28;46035;-70
2022/06/01 07:55:28;;;;;;;;;3.67;3.33;;;;;;;;5081254;27;45434;-69
2022/06/01 07:57:54;;;;;;;;;2.67;2.67;;;;;;;;5083260;27;45244;-69
2022/06/01 08:00:20;;;;;;;;;1.00;1.00;;;;;;;;5076984;27;45440;-69
2022/06/01 08:02:45;;;;;;;;;3.00;3.00;;;;;;;;5087951;27;45411;-69
2022/06/01 08:05:12;;;;;;;;;1.67;1.67;;;;;;;;5077395;27;45898;-69
2022/06/01 08:07:38;;;;;;;;;1.33;1.33;;;;;;;;5078734;27;45464;-69
2022/06/01 08:10:03;;;;;;;;;2.00;0.67;;;;;;;;5053498;28;45714;-69
2022/06/01 08:15:13;;;;;;;;;1.25;1.25;;;;;;;;5077423;28;45331;-69
2022/06/01 08:17:38;;;;;;;;;1.25;1.25;;;;;;;;5079572;27;45146;-69
2022/06/01 08:20:04;;;;;;;;;1.00;1.00;;;;;;;;5077770;28;45725;-69
2022/06/01 08:22:29;;;;;;;;;2.00;2.00;;;;;;;;5079422;28;45339;-69
2022/06/01 08:24:54;;;;;;;;;1.50;1.50;;;;;;;;5059346;27;47450;-69
2022/06/01 08:27:19;;;;;;;;;1.50;1.50;;;;;;;;5079753;27;45277;-69
2022/06/01 08:29:45;;;;;;;;;1.25;1.00;;;;;;;;5083525;27;45430;-69
2022/06/01 08:32:11;;;;;;;;;2.50;2.00;;;;;;;;5079595;27;45497;-69
2022/06/01 08:34:36;;;;;;;;;4.50;2.00;;;;;;;;5055504;28;47046;-69
2022/06/01 08:37:02;;;;;;;;;2.25;2.00;;;;;;;;5080207;28;45496;-69
2022/06/01 08:39:27;;;;;;;;;2.00;1.50;;;;;;;;5077706;27;45424;-69
2022/06/01 08:41:53;;;;;;;;;2.00;1.00;;;;;;;;5074834;27;45515;-70
2022/06/01 08:44:27;;;;;;;;;3.00;3.00;;;;;;;;5077036;28;46271;-69
2022/06/01 08:46:54;;;;;;;;;2.25;2.00;;;;;;;;5075171;27;45427;-69
2022/06/01 08:49:23;;;;;;;;;1.50;1.50;;;;;;;;5074773;27;45457;-69
2022/06/01 08:51:49;;;;;;;;;2.00;2.00;;;;;;;;5079195;28;45431;-69
2022/06/01 08:54:14;;;;;;;;;2.50;2.00;;;;;;;;5075593;28;45489;-69
2022/06/01 08:56:41;;;;;;;;;3.75;2.00;;;;;;;;5085064;27;45517;-69
2022/06/01 08:59:18;;;;;;;;;1.75;1.75;;;;;;;;5081313;27;45469;-69
2022/06/01 09:01:50;;;;;;;;;3.00;3.00;;;;;;;;5058109;28;46089;-69
2022/06/01 09:04:28;;;;;;;;;0.75;0.50;;;;;;;;5077339;27;45469;-69
2022/06/01 09:06:57;;;;;;;;;2.00;2.00;;;;;;;;5079133;28;45532;-69
2022/06/01 09:09:25;;;;;;;;;2.00;1.50;;;;;;;;5057951;28;45311;-69
2022/06/01 09:11:51;;;;;;;;;2.75;2.00;;;;;;;;5069595;27;45396;-69
2022/06/01 09:14:20;;;;;;;;;2.00;2.00;;;;;;;;5076355;27;46334;-70
2022/06/01 09:16:49;;;;;;;;;1.25;1.00;;;;;;;;5059300;28;45419;-70
2022/06/01 09:19:22;;;;;;;;;1.00;1.00;;;;;;;;5075112;27;45439;-67
2022/06/01 09:24:39;;;;;;;;;0.00;0.00;;;;;;;;5079535;27;46053;-68
2022/06/01 09:27:06;;;;;;;;;2.00;0.80;;;;;;;;5064203;28;45941;-68
2022/06/01 09:29:33;;;;;;;;;2.00;1.00;;;;;;;;5059253;27;45268;-68
2022/06/01 09:32:00;;;;;;;;;2.50;2.25;;;;;;;;5082714;27;45932;-68
2022/06/01 09:34:30;;;;;;;;;0.50;0.50;;;;;;;;5077443;27;46353;-67
2022/06/01 09:37:07;;;;;;;;;0.80;0.80;;;;;;;;5081389;27;45245;-68
2022/06/01 09:39:33;;;;;;;;;2.75;1.25;;;;;;;;5068619;27;45539;-68
2022/06/01 09:42:10;;;;;;;;;2.00;2.00;;;;;;;;5081426;27;45591;-68
2022/06/01 09:44:40;;;;;;;;;2.00;2.00;;;;;;;;5075515;27;46024;-68
2022/06/01 09:47:05;;;;;;;;;2.00;0.80;;;;;;;;5080798;27;45354;-68
2022/06/01 09:49:32;;;;;;;;;1.25;1.25;;;;;;;;5076712;27;45368;-69
2022/06/01 09:52:20;;;;;;;;;1.25;1.25;;;;;;;;5081682;27;45251;-69
2022/06/01 09:54:51;;;;;;;;;2.50;0.75;;;;;;;;5075002;27;45349;-69
2022/06/01 09:57:16;;;;;;;;;1.00;1.00;;;;;;;;5081889;27;45391;-69
2022/06/01 10:08:12;;;;;;;;;0.75;0.75;;;;;;;;5089479;27;45301;-69
2022/06/01 10:10:38;;;;;;;;;1.75;1.75;;;;;;;;5057995;28;45221;-69
2022/06/01 10:13:06;;;;;;;;;1.00;1.00;;;;;;;;5083580;27;45364;-69
2022/06/01 10:15:37;;;;;;;;;4.00;2.00;;;;;;;;5080505;27;45410;-69
2022/06/01 10:18:13;;;;;;;;;1.00;0.40;;;;;;;;5078577;27;45337;-69
2022/06/01 10:20:39;;;;;;;;;1.00;1.00;;;;;;;;5078251;27;45403;-69
2022/06/01 10:23:04;;;;;;;;;2.75;1.50;;;;;;;;5089284;27;45526;-69
2022/06/01 10:25:33;;;;;;;;;3.00;1.00;;;;;;;;5079157;27;45292;-69
2022/06/01 10:28:06;;;;;;;;;1.60;1.60;;;;;;;;5081653;27;45307;-68
2022/06/01 10:30:35;;;;;;;;;0.40;0.40;;;;;;;;5077084;28;45671;-68
2022/06/01 10:33:03;;;;;;;;;1.00;1.00;;;;;;;;5081214;28;45786;-69
2022/06/01 10:35:28;;;;;;;;;1.00;1.00;;;;;;;;5063878;27;48201;-68
2022/06/01 10:38:12;;;;;;;;;2.75;2.00;;;;;;;;5087328;27;45342;-68
2022/06/01 10:40:47;;;;;;;;;0.00;0.00;;;;;;;;5051874;27;45526;-68
2022/06/01 10:43:19;;;;;;;;;0.80;0.80;;;;;;;;5056183;27;47111;-68
2022/06/01 10:45:47;;;;;;;;;2.20;0.40;;;;;;;;5075794;27;46672;-69
2022/06/01 10:48:19;;;;;;;;;0.60;0.60;;;;;;;;5081275;27;45403;-69
2022/06/01 10:50:51;;;;;;;;;1.00;0.80;;;;;;;;5073778;28;45297;-70
2022/06/01 10:53:22;;;;;;;;;3.00;1.80;;;;;;;;5094695;27;46105;-71
2022/06/01 10:55:48;;;;;;;;;0.80;0.80;;;;;;;;5081387;27;45683;-71
2022/06/01 10:58:19;;;;;;;;;1.80;1.80;;;;;;;;5099427;27;45425;-71
2022/06/01 11:00:49;;;;;;;;;0.80;0.80;;;;;;;;5075663;27;45648;-71
2022/06/01 11:03:26;;;;;;;;;0.40;0.40;;;;;;;;5081357;27;45486;-71
2022/06/01 11:05:51;;;;;;;;;1.00;1.00;;;;;;;;5073901;27;45450;-72
2022/06/01 11:08:46;;;;;;;;;1.00;1.00;;;;;;;;5080052;27;45352;-71
2022/06/01 11:11:11;;;;;;;;;1.00;0.80;;;;;;;;5068920;27;45269;-71
2022/06/01 11:13:47;;;;;;;;;0.25;0.25;;;;;;;;5066704;28;47350;-71
2022/06/01 11:16:31;;;;;;;;;1.40;0.40;;;;;;;;5078981;27;46357;-71
2022/06/01 11:19:16;;;;;;;;;1.60;0.20;;;;;;;;5052430;28;45271;-70
2022/06/01 11:21:48;;;;;;;;;1.00;1.00;;;;;;;;5071286;27;45543;-69
2022/06/01 11:24:13;;;;;;;;;2.20;0.60;;;;;;;;5094492;27;45387;-70
2022/06/01 11:26:49;;;;;;;;;0.75;0.25;;;;;;;;5088431;27;45485;-72
2022/06/01 11:29:17;;;;;;;;;0.20;0.20;;;;;;;;5077066;28;45312;-70
2022/06/01 11:31:44;;;;;;;;;0.20;0.20;;;;;;;;5058059;27;45462;-71
2022/06/01 11:34:09;;;;;;;;;0.20;0.20;;;;;;;;5087857;27;45560;-70
2022/06/01 11:36:49;;;;;;;;;1.75;1.25;;;;;;;;5084349;27;46364;-72
2022/06/01 11:39:33;;;;;;;;;0.20;0.20;;;;;;;;5061603;27;45255;-70
2022/06/01 11:42:13;;;;;;;;;0.20;0.20;;;;;;;;5076092;27;45531;-71
2022/06/01 11:44:41;;;;;;;;;0.80;0.80;;;;;;;;5055237;28;47170;-69
2022/06/01 11:47:16;;;;;;;;;0.20;0.20;;;;;;;;5077507;27;45482;-70
2022/06/01 11:49:44;;;;;;;;;0.20;0.20;;;;;;;;5084088;27;45478;-72
2022/06/01 11:52:15;;;;;;;;;0.40;0.40;;;;;;;;5091332;27;45499;-70
2022/06/01 11:54:40;;;;;;;;;0.80;0.20;;;;;;;;5073587;27;45733;-71
2022/06/01 11:57:25;;;;;;;;;2.00;0.75;;;;;;;;5080049;27;46553;-72
2022/06/01 12:00:04;;;;;;;;;18.25;17.25;;;;;;;;5058021;28;45370;-72
2022/06/01 12:02:42;;;;;;;;;2.20;2.20;;;;;;;;5074846;28;45343;-72
2022/06/01 12:05:12;;;;;;;;;0.80;0.00;;;;;;;;5052939;28;47163;-72
2022/06/01 12:07:40;;;;;;;;;1.60;1.60;;;;;;;;5095700;27;46977;-71
2022/06/01 12:10:20;;;;;;;;;0.40;0.40;;;;;;;;5078805;27;45625;-72
2022/06/01 12:13:06;;;;;;;;;1.20;1.20;;;;;;;;5095349;27;45374;-71
2022/06/01 12:15:41;;;;;;;;;1.80;1.80;;;;;;;;5080837;27;45454;-72
2022/06/01 12:18:06;;;;;;;;;0.40;0.40;;;;;;;;5061473;28;47706;-71
2022/06/01 12:20:31;;;;;;;;;2.25;1.25;;;;;;;;5077291;27;45398;-72
2022/06/01 12:28:47;;;;;;;;;0.20;0.20;;;;;;;;5086153;27;45520;-71
2022/06/01 12:31:18;;;;;;;;;1.80;0.20;;;;;;;;5052286;27;45435;-71
2022/06/01 12:34:04;;;;;;;;;0.40;0.40;;;;;;;;5056568;28;45449;-71
2022/06/01 12:36:48;;;;;;;;;1.00;1.00;;;;;;;;5057149;27;46582;-71
2022/06/01 12:39:16;;;;;;;;;0.60;0.60;;;;;;;;5071148;27;46111;-72
2022/06/01 12:41:44;;;;;;;;;0.40;0.40;;;;;;;;5076562;27;45400;-72
2022/06/01 12:44:10;;;;;;;;;0.80;0.20;;;;;;;;5074544;28;45424;-71
2022/06/01 12:46:39;;;;;;;;;0.00;0.00;;;;;;;;5057780;27;47118;-72
2022/06/01 12:49:23;;;;;;;;;2.20;1.20;;;;;;;;5073712;27;45465;-72
2022/06/01 12:51:49;;;;;;;;;0.20;0.20;;;;;;;;5076440;27;45453;-72
2022/06/01 12:54:27;;;;;;;;;2.60;0.20;;;;;;;;5074761;27;45582;-72
2022/06/01 12:56:52;;;;;;;;;1.00;0.20;;;;;;;;5077651;27;45626;-72
2022/06/01 12:59:18;;;;;;;;;0.75;0.75;;;;;;;;5065210;28;48207;-71
2022/06/01 13:01:43;;;;;;;;;1.25;1.25;;;;;;;;5075780;28;45576;-72
2022/06/01 13:04:08;;;;;;;;;0.50;0.50;;;;;;;;5076416;28;45403;-71
2022/06/01 13:06:39;;;;;;;;;0.00;0.00;;;;;;;;5078693;27;45522;-67
2022/06/01 13:09:10;;;;;;;;;0.20;0.20;;;;;;;;5075438;28;46215;-68
2022/06/01 13:11:36;;;;;;;;;0.40;0.40;;;;;;;;5076465;27;45675;-68
2022/06/01 13:14:03;;;;;;;;;0.40;0.40;;;;;;;;5077321;27;45268;-68
2022/06/01 13:16:45;;;;;;;;;0.00;0.00;;;;;;;;5076896;28;45549;-69
2022/06/01 13:19:17;;;;;;;;;0.20;0.20;;;;;;;;5077758;27;46197;-71
2022/06/01 13:21:43;;;;;;;;;1.20;1.20;;;;;;;;5069946;27;46085;-72
2022/06/01 13:24:09;;;;;;;;;1.00;1.00;;;;;;;;5074357;27;45580;-72
2022/06/01 13:26:37;;;;;;;;;0.50;0.50;;;;;;;;5050376;27;47098;-72
2022/06/01 13:29:12;;;;;;;;;0.40;0.40;;;;;;;;5074839;27;47165;-72
2022/06/01 13:31:39;;;;;;;;;0.20;0.20;;;;;;;;5091504;27;45345;-72
2022/06/01 13:34:06;;;;;;;;;0.60;0.60;;;;;;;;5082187;27;45410;-72
2022/06/01 13:36:37;;;;;;;;;1.20;1.20;;;;;;;;5079783;27;45414;-70
2022/06/01 13:39:07;;;;;;;;;30.75;26.50;;;;;;;;5080088;27;45412;-74
2022/06/01 13:41:52;;;;;;;;;2.00;2.00;;;;;;;;5052818;28;45928;-73
2022/06/01 13:44:36;;;;;;;;;2.60;0.80;;;;;;;;5074546;28;45409;-69
2022/06/01 13:47:02;;;;;;;;;1.40;0.20;;;;;;;;5077441;28;45442;-71
2022/06/01 13:49:27;;;;;;;;;2.00;2.00;;;;;;;;5073513;28;45341;-72
2022/06/01 13:51:58;;;;;;;;;0.25;0.25;;;;;;;;5074760;27;45376;-72
2022/06/01 13:54:29;;;;;;;;;0.60;0.40;;;;;;;;5075572;27;45394;-71
2022/06/01 13:57:13;;;;;;;;;0.80;0.80;;;;;;;;5065416;28;46148;-71
2022/06/01 13:59:40;;;;;;;;;2.20;1.20;;;;;;;;5073437;27;46107;-71
2022/06/01 14:02:13;;;;;;;;;1.00;1.00;;;;;;;;5078576;27;46150;-71
2022/06/01 14:04:42;;;;;;;;;2.00;1.80;;;;;;;;5083325;27;45440;-72
2022/06/01 14:07:12;;;;;;;;;1.80;0.80;;;;;;;;5072812;27;45260;-72
2022/06/01 14:09:43;;;;;;;;;0.80;0.80;;;;;;;;5077362;27;45524;-72
2022/06/01 14:12:08;;;;;;;;;2.60;0.80;;;;;;;;5061384;27;45261;-72
2022/06/01 14:14:38;;;;;;;;;0.75;0.25;;;;;;;;5078371;27;45633;-72
2022/06/01 14:17:06;;;;;;;;;1.40;1.40;;;;;;;;5081377;27;45390;-72
2022/06/01 14:19:32;;;;;;;;;0.00;0.00;;;;;;;;5079157;27;45657;-72
2022/06/01 14:21:57;;;;;;;;;0.25;0.25;;;;;;;;5073850;27;45243;-72
2022/06/01 14:24:24;;;;;;;;;0.75;0.75;;;;;;;;5078831;27;45328;-73
2022/06/01 14:29:32;;;;;;;;;1.60;1.60;;;;;;;;5079144;27;45201;-72
2022/06/01 14:31:58;;;;;;;;;0.75;0.75;;;;;;;;5074697;27;45560;-72
2022/06/01 14:34:24;;;;;;;;;0.75;0.25;;;;;;;;5077686;27;45158;-72
2022/06/01 14:36:51;;;;;;;;;1.20;1.20;;;;;;;;5088479;27;45443;-72
2022/06/01 14:39:19;;;;;;;;;1.60;1.20;;;;;;;;5060319;28;47038;-71
2022/06/01 14:41:45;;;;;;;;;2.00;0.80;;;;;;;;5062585;28;45566;-72
2022/06/01 14:44:12;;;;;;;;;0.00;0.00;;;;;;;;5060726;28;45269;-72
2022/06/01 14:46:37;;;;;;;;;1.00;0.00;;;;;;;;5060471;28;46328;-72
2022/06/01 14:49:04;;;;;;;;;1.25;1.25;;;;;;;;5078756;27;46095;-72
2022/06/01 14:51:30;;;;;;;;;0.00;0.00;;;;;;;;5077768;27;45252;-72
2022/06/01 14:53:58;;;;;;;;;0.80;0.80;;;;;;;;5079233;27;45386;-72
2022/06/01 14:56:23;;;;;;;;;1.20;1.20;;;;;;;;5078383;27;45399;-73
2022/06/01 14:58:48;;;;;;;;;4.00;1.00;;;;;;;;5074514;27;46028;-72
2022/06/01 15:01:16;;;;;;;;;0.50;0.50;;;;;;;;5076387;27;45487;-72
2022/06/01 15:03:43;;;;;;;;;2.40;1.80;;;;;;;;5056766;28;45477;-72
2022/06/01 15:06:10;;;;;;;;;0.40;0.00;;;;;;;;5078740;27;45600;-72
2022/06/01 15:08:35;;;;;;;;;0.40;0.00;;;;;;;;5080344;27;45387;-72
2022/06/01 15:11:01;;;;;;;;;0.25;0.25;;;;;;;;5058993;28;45432;-72
2022/06/01 15:13:27;;;;;;;;;0.75;0.75;;;;;;;;5084587;27;45476;-72
2022/06/01 15:15:53;;;;;;;;;0.25;0.25;;;;;;;;5058478;27;46011;-72
2022/06/01 15:18:18;;;;;;;;;0.00;0.00;;;;;;;;5080300;27;45356;-72
2022/06/01 15:20:43;;;;;;;;;0.25;0.25;;;;;;;;5069823;27;45754;-72
2022/06/01 15:23:09;;;;;;;;;0.25;0.25;;;;;;;;5080166;27;45285;-71